LKMLAD weather

Letiště Mladá
Central Bohemian Region, Czechia

Public forecast

Using degrees Celsius for public forecast. Weather courtesy of forecast.io.

Closest aviation weather report (METAR) to Letiště Mladá

Closest report is Kbely Air Base, 14.1 nm (26.1 km) WSW. Retrieved 2019/10/22 13:25 UTC (17 minutes ago):

LKKB 221325Z 17003KT 110V190 4000 BR OVC003 13/12 Q1023 RMK AMB

Closest aviation forecast (TAF) to Letiště Mladá

Closest forecast is Kbely Air Base, 14.1 nm (26.1 km) WSW. Retrieved 2019/10/22 12:00 UTC (2 hours ago):

TAF COR LKKB 221100Z 2212/2312 VRB02KT 3000 BR BKN002 TEMPO 2213/2216 4000 SCT007 BECMG 2216/2218 2000 BR TEMPO 2218/2310 0300 FG VV001